Carlton, PA (16311)

6:01 AM EDT on July 31, 2016 (GMT -0400)
Cochranton PA | | Change Station
Active Advisory: Special Statement

Elev 1056 ft 41.52 °N, 80.05 °W | Updated 2 seconds ago

Overcast
Overcast
67.1 °F
Feels Like 67.1 °F
N
0.0
Wind Variable Wind from NE
Gusts 0.0 mph

Today
High -- | Low -- °F
--% Chance of Precip.
Yesterday
High -- | Low -- °F
Precip. -- in
Pressure 30.02 in
Visibility 5.0 miles
Clouds Scattered Clouds 300 ft
Scattered Clouds 1100 ft
Overcast 1700 ft
Dew Point 67 °F
Humidity 99%
Rainfall 0.00 in
Snow Depth Not available.
6:14 AM 8:37 PM
Waning Crescent, 7% visible
METAR KFKL 310955Z AUTO 10003KT 5SM SCT003 SCT011 OVC017 18/17 A3002 RMK AO1
Pressure 30.02 in
Visibility 5.0 miles
Clouds Scattered Clouds 300 ft
Scattered Clouds 1100 ft
Overcast 1700 ft
Dew Point 67 °F
Humidity 99%
Rainfall 0.00 in
Snow Depth Not available.
6:14 AM 8:37 PM
Waning Crescent, 7% visible
METAR KFKL 310955Z AUTO 10003KT 5SM SCT003 SCT011 OVC017 18/17 A3002 RMK AO1

10-Day Weather Forecast

Almanac

Astronomy

Jul. 31, 2016 Rise Set
Actual Time
Civil Twilight
Nautical Twilight
Astronomical Twilight
Moon
Length of Visible Light
Length of Day
Tomorrow will be .
, % of the Moon is Illuminated

Today's Extremes

State Highs State Lows

Community

WunderPhotos

Upload Photos

1,928,778 photos uploaded!

WunderBlog® & News

Nearby

Air Quality

  Air Quality AQ Index Pollutant
Not available.

Snow Depth

Station Depth Elevation

Earthquake Activity

City Distance Mag. Time & Date
Minimum magnitude displayed is 2.5.

Coastal Water Temperatures

Place Temperature

Stations

Nearby Weather Stations

Station Location Temp. Windchill Dew Point Humidity Wind Precip. Elev Updated Type
                   

Watches & Warnings

Special Statement
Issued: 5:59 AM EDT Jul. 31, 2016 – National Weather Service

... Areas of fog through mid morning...

Fog will persist through mid morning across the region with
localized areas of dense fog reducing visibilities to below a
quarter of a mile at times.

Motorists are advised to use extra caution and slow down if you
encounter dense fog.



559 am EDT sun Jul 31 2016

... Areas of fog through mid morning...

Fog will persist through mid morning across the region with
localized areas of dense fog reducing visibilities to below a
quarter of a mile at times.

Motorists are advised to use extra caution and slow down if you
encounter dense fog.


559 am EDT sun Jul 31 2016

... Areas of fog through mid morning...

Fog will persist through mid morning across the region with
localized areas of dense fog reducing visibilities to below a
quarter of a mile at times.

Motorists are advised to use extra caution and slow down if you
encounter dense fog.